createdAt,value
2018-12-15T00:00:54.100Z,27.67
2018-12-15T00:01:57.664Z,31.67
2018-12-15T00:03:01.343Z,28.60
2018-12-15T00:04:04.899Z,29.03
2018-12-15T00:05:08.838Z,31.53
2018-12-15T00:06:12.672Z,31.50
2018-12-15T00:07:16.427Z,27.27
2018-12-15T00:08:19.975Z,28.63
2018-12-15T00:09:23.604Z,28.33
2018-12-15T00:10:27.254Z,29.17
2018-12-15T00:11:30.816Z,27.30
2018-12-15T00:12:34.400Z,31.27
2018-12-15T00:13:38.267Z,27.53
2018-12-15T00:14:42.366Z,28.47
2018-12-15T00:15:45.943Z,27.93
2018-12-15T00:16:49.526Z,30.63
2018-12-15T00:17:53.219Z,29.50
2018-12-15T00:18:56.806Z,26.87
2018-12-15T00:20:00.461Z,27.60
2018-12-15T00:21:04.048Z,29.43
2018-12-15T00:22:07.671Z,29.53
2018-12-15T00:23:11.402Z,27.00
2018-12-15T00:24:14.917Z,27.53
2018-12-15T00:25:18.494Z,28.33
2018-12-15T00:26:22.140Z,29.13
2018-12-15T00:27:25.806Z,26.37
2018-12-15T00:28:29.407Z,27.07
2018-12-15T00:29:32.926Z,30.33
2018-12-15T00:30:36.581Z,27.30
2018-12-15T00:31:40.239Z,28.07
2018-12-15T00:32:43.795Z,26.33
2018-12-15T00:33:47.316Z,28.03
2018-12-15T00:34:50.858Z,28.13
2018-12-15T00:35:54.341Z,27.13
2018-12-15T00:36:57.897Z,26.97
2018-12-15T00:38:01.495Z,24.80
2018-12-15T00:39:07.443Z,24.27
2018-12-15T00:40:11.030Z,26.77
2018-12-15T00:41:14.542Z,28.37
2018-12-15T00:42:18.090Z,27.63
2018-12-15T00:43:21.716Z,31.03
2018-12-15T00:44:25.419Z,28.07
2018-12-15T00:45:29.032Z,28.73
2018-12-15T00:46:32.528Z,25.47
2018-12-15T00:47:36.215Z,26.17
2018-12-15T00:48:39.882Z,28.83
2018-12-15T00:49:43.463Z,26.17
2018-12-15T00:50:47.256Z,26.60
2018-12-15T00:51:50.793Z,29.57
2018-12-15T00:52:54.436Z,28.73
2018-12-15T00:53:58.034Z,27.20
2018-12-15T00:55:01.665Z,29.30
2018-12-15T00:56:05.279Z,26.93
2018-12-15T00:57:08.906Z,26.80
2018-12-15T00:58:12.562Z,30.63
2018-12-15T00:59:16.059Z,27.67
2018-12-15T01:00:19.687Z,27.33
2018-12-15T01:01:23.306Z,31.03
2018-12-15T01:02:26.836Z,28.23
2018-12-15T01:03:30.384Z,27.10
2018-12-15T01:04:33.891Z,27.17
2018-12-15T01:05:37.515Z,28.63
2018-12-15T01:06:41.063Z,26.40
2018-12-15T01:07:44.580Z,27.13
2018-12-15T01:08:48.090Z,26.50
2018-12-15T01:09:51.647Z,32.27
2018-12-15T01:10:55.146Z,30.20
2018-12-15T01:11:58.770Z,29.87
2018-12-15T01:13:02.428Z,27.77
2018-12-15T01:14:06.095Z,29.20
2018-12-15T01:15:09.770Z,29.70
2018-12-15T01:16:13.277Z,28.77
2018-12-15T01:17:20.558Z,30.27
2018-12-15T01:18:22.492Z,30.60
2018-12-15T01:19:25.990Z,28.17
2018-12-15T01:20:29.507Z,26.67
2018-12-15T01:21:33.378Z,27.13
2018-12-15T01:22:36.956Z,27.93
2018-12-15T01:23:40.701Z,26.93
2018-12-15T01:24:44.320Z,30.53
2018-12-15T01:25:47.847Z,29.97
2018-12-15T01:26:51.374Z,27.00
2018-12-15T01:27:54.848Z,29.33
2018-12-15T01:28:58.385Z,25.83
2018-12-15T01:30:01.941Z,30.33
2018-12-15T01:31:05.566Z,31.10
2018-12-15T01:32:09.032Z,29.50
2018-12-15T01:33:12.802Z,29.47
2018-12-15T01:34:16.319Z,26.90
2018-12-15T01:35:22.222Z,27.60
2018-12-15T01:36:25.721Z,29.97
2018-12-15T01:37:38.327Z,27.57
2018-12-15T01:38:42.014Z,29.80
2018-12-15T01:39:45.705Z,30.20
2018-12-15T01:40:49.445Z,28.33
2018-12-15T01:41:52.949Z,27.93
2018-12-15T01:42:56.511Z,30.97
2018-12-15T01:44:00.303Z,29.30
2018-12-15T01:45:04.093Z,27.97
2018-12-15T01:46:07.672Z,25.10
2018-12-15T01:47:11.365Z,31.60
2018-12-15T01:48:14.836Z,27.63
2018-12-15T01:49:18.411Z,26.37
2018-12-15T01:50:22.202Z,30.70
2018-12-15T01:51:25.736Z,28.33
2018-12-15T01:52:29.307Z,27.73
2018-12-15T01:53:32.783Z,29.03
2018-12-15T01:54:36.427Z,28.40
2018-12-15T01:55:40.060Z,27.87
2018-12-15T01:56:43.663Z,30.80
2018-12-15T01:57:47.174Z,32.17
2018-12-15T01:58:50.786Z,29.10
2018-12-15T01:59:54.363Z,30.23
2018-12-15T02:00:57.971Z,27.27
2018-12-15T02:02:01.602Z,31.50
2018-12-15T02:03:05.265Z,27.07
2018-12-15T02:04:08.744Z,27.47
2018-12-15T02:05:12.922Z,29.63
2018-12-15T02:06:16.464Z,28.53
2018-12-15T02:07:20.177Z,26.33
2018-12-15T02:08:23.739Z,30.00
2018-12-15T02:09:27.567Z,27.20
2018-12-15T02:10:31.174Z,27.43
2018-12-15T02:11:34.797Z,26.57
2018-12-15T02:12:38.373Z,27.47
2018-12-15T02:13:42.197Z,25.97
2018-12-15T02:14:45.738Z,30.13
2018-12-15T02:15:49.491Z,28.00
2018-12-15T02:16:52.979Z,29.60
2018-12-15T02:17:56.459Z,27.03
2018-12-15T02:18:59.990Z,27.97
2018-12-15T02:20:05.319Z,28.13
2018-12-15T02:21:08.799Z,27.73
2018-12-15T02:22:12.740Z,26.90
2018-12-15T02:23:16.393Z,31.17
2018-12-15T02:24:19.959Z,25.90
2018-12-15T02:25:23.519Z,29.50
2018-12-15T02:26:27.286Z,29.37
2018-12-15T02:27:30.760Z,28.00
2018-12-15T02:28:34.680Z,26.67
2018-12-15T02:29:38.190Z,26.80
2018-12-15T02:30:42.003Z,30.27
2018-12-15T02:31:45.674Z,27.97
2018-12-15T02:32:49.377Z,29.97
2018-12-15T02:33:52.869Z,29.70
2018-12-15T02:34:56.479Z,28.43
2018-12-15T02:35:59.957Z,31.67
2018-12-15T02:37:03.543Z,29.93
2018-12-15T02:38:15.320Z,27.17
2018-12-15T02:39:18.846Z,28.03
2018-12-15T02:40:23.001Z,25.10
2018-12-15T02:41:26.586Z,29.63
2018-12-15T02:42:30.695Z,30.73
2018-12-15T02:43:34.264Z,29.90
2018-12-15T02:44:37.753Z,27.73
2018-12-15T02:45:41.343Z,23.93
2018-12-15T02:46:44.893Z,26.83
2018-12-15T02:47:48.482Z,27.47
2018-12-15T02:48:51.951Z,26.10
2018-12-15T02:49:56.052Z,27.13
2018-12-15T02:50:59.574Z,29.60
2018-12-15T02:52:03.056Z,28.03
2018-12-15T02:53:07.092Z,26.77
2018-12-15T02:54:10.841Z,29.20
2018-12-15T02:55:14.691Z,27.67
2018-12-15T02:56:18.854Z,31.57
2018-12-15T02:57:22.723Z,28.43
2018-12-15T02:58:26.266Z,27.60
2018-12-15T02:59:29.755Z,27.60
2018-12-15T03:00:34.193Z,29.90
2018-12-15T03:01:37.732Z,30.37
2018-12-15T03:02:41.520Z,32.97
2018-12-15T03:03:45.013Z,29.10
2018-12-15T03:04:49.181Z,29.07
2018-12-15T03:05:52.764Z,28.37
2018-12-15T03:06:56.382Z,28.60
2018-12-15T03:07:59.884Z,27.40
2018-12-15T03:09:05.391Z,28.43
2018-12-15T03:10:09.346Z,27.03
2018-12-15T03:11:13.466Z,26.50
2018-12-15T03:12:16.972Z,31.27
2018-12-15T03:13:20.452Z,28.93
2018-12-15T03:14:24.375Z,26.07
2018-12-15T03:15:28.774Z,27.60
2018-12-15T03:16:32.471Z,28.80
2018-12-15T03:17:36.046Z,27.87
2018-12-15T03:18:39.498Z,28.83
2018-12-15T03:19:43.087Z,29.53
2018-12-15T03:21:00.525Z,26.60
2018-12-15T03:22:04.054Z,26.43
2018-12-15T03:23:08.559Z,29.70
2018-12-15T03:24:12.071Z,28.73
2018-12-15T03:25:15.759Z,25.60
2018-12-15T03:26:19.279Z,25.20
2018-12-15T03:27:22.756Z,29.13
2018-12-15T03:28:27.430Z,26.40
2018-12-15T03:29:30.921Z,24.93
2018-12-15T03:30:34.469Z,29.43
2018-12-15T03:31:37.931Z,29.17
2018-12-15T03:32:41.960Z,27.63
2018-12-15T03:33:46.115Z,28.33
2018-12-15T03:34:49.737Z,27.10
2018-12-15T03:35:53.839Z,32.30
2018-12-15T03:36:57.278Z,28.57
2018-12-15T03:38:00.754Z,25.60
2018-12-15T03:39:05.560Z,28.17
2018-12-15T03:40:09.124Z,27.70
2018-12-15T03:41:13.289Z,26.60
2018-12-15T03:42:16.753Z,26.73
2018-12-15T03:43:20.481Z,30.20
2018-12-15T03:44:23.978Z,27.50
2018-12-15T03:45:27.454Z,26.60
2018-12-15T03:46:31.388Z,30.20
2018-12-15T03:47:34.865Z,28.40
2018-12-15T03:48:38.530Z,30.73
2018-12-15T03:49:42.008Z,27.57
2018-12-15T03:50:45.491Z,24.33
2018-12-15T03:51:48.935Z,26.73
2018-12-15T03:52:52.405Z,27.33
2018-12-15T03:53:55.952Z,24.63
2018-12-15T03:54:59.471Z,28.10
2018-12-15T03:56:02.947Z,27.87
2018-12-15T03:57:06.432Z,29.40
2018-12-15T03:58:10.265Z,27.73
2018-12-15T03:59:13.763Z,28.30
2018-12-15T04:00:17.350Z,28.30
2018-12-15T04:01:21.207Z,26.50
2018-12-15T04:02:25.221Z,28.03
2018-12-15T04:03:28.683Z,27.43
2018-12-15T04:04:33.778Z,28.90
2018-12-15T04:05:38.123Z,27.67
2018-12-15T04:06:41.734Z,23.97
2018-12-15T04:07:45.215Z,26.00
2018-12-15T04:08:48.701Z,27.63
2018-12-15T04:09:52.234Z,25.30
2018-12-15T04:10:55.682Z,24.43
2018-12-15T04:11:59.216Z,26.97
2018-12-15T04:13:02.707Z,26.20
2018-12-15T04:14:06.207Z,26.70
2018-12-15T04:15:09.822Z,23.37
2018-12-15T04:16:13.298Z,29.23
2018-12-15T04:17:17.599Z,27.67
2018-12-15T04:18:21.145Z,25.67
2018-12-15T04:19:25.227Z,26.33
2018-12-15T04:20:28.769Z,28.33
2018-12-15T04:21:32.255Z,28.97
2018-12-15T04:22:35.699Z,26.30
2018-12-15T04:23:39.223Z,26.80
2018-12-15T04:24:43.342Z,26.03
2018-12-15T04:25:48.049Z,28.23
2018-12-15T04:26:52.212Z,26.07
2018-12-15T04:27:56.301Z,28.93
2018-12-15T04:29:00.435Z,28.93
2018-12-15T04:30:04.826Z,26.20
2018-12-15T04:31:08.343Z,27.07
2018-12-15T04:32:11.888Z,27.00
2018-12-15T04:33:15.367Z,28.47
2018-12-15T04:34:18.826Z,28.83
2018-12-15T04:35:22.390Z,28.93
2018-12-15T04:36:25.906Z,27.57
2018-12-15T04:37:29.526Z,24.67
2018-12-15T04:38:33.778Z,28.63
2018-12-15T04:39:37.320Z,24.87
2018-12-15T04:40:41.078Z,25.80
2018-12-15T04:41:45.192Z,27.50
2018-12-15T04:42:49.372Z,26.60
2018-12-15T04:43:53.111Z,22.00
2018-12-15T04:44:56.530Z,24.90
2018-12-15T04:46:00.056Z,24.37
2018-12-15T04:47:04.239Z,25.17
2018-12-15T04:48:11.294Z,26.40
2018-12-15T04:49:13.733Z,26.73
2018-12-15T04:50:17.694Z,24.17
2018-12-15T04:51:21.866Z,24.20
2018-12-15T04:52:25.301Z,25.93
2018-12-15T04:53:28.796Z,24.83
2018-12-15T04:54:32.544Z,23.03
2018-12-15T04:55:35.991Z,24.70
2018-12-15T04:56:39.450Z,25.53
2018-12-15T04:57:43.053Z,26.73
2018-12-15T04:58:46.508Z,24.47
2018-12-15T04:59:49.996Z,26.20
2018-12-15T05:00:53.474Z,23.43
2018-12-15T05:01:56.984Z,28.17
2018-12-15T05:03:01.048Z,27.07
2018-12-15T05:04:04.983Z,27.80
2018-12-15T05:05:08.491Z,27.33
2018-12-15T05:06:12.690Z,27.60
2018-12-15T05:07:16.155Z,24.57
2018-12-15T05:08:19.648Z,26.30
2018-12-15T05:09:23.861Z,25.20
2018-12-15T05:10:27.403Z,24.60
2018-12-15T05:11:30.915Z,23.27
2018-12-15T05:12:35.106Z,24.20
2018-12-15T05:13:38.594Z,23.50
2018-12-15T05:14:42.718Z,28.47
2018-12-15T05:15:46.345Z,24.57
2018-12-15T05:16:50.719Z,25.20
2018-12-15T05:17:54.928Z,24.97
2018-12-15T05:18:58.704Z,21.93
2018-12-15T05:20:02.177Z,22.90
2018-12-15T05:21:05.694Z,21.70
2018-12-15T05:22:10.020Z,25.47
2018-12-15T05:23:13.570Z,24.93
2018-12-15T05:24:17.122Z,24.27
2018-12-15T05:25:21.196Z,25.83
2018-12-15T05:26:24.824Z,23.43
2018-12-15T05:27:29.028Z,27.83
2018-12-15T05:28:32.524Z,24.77
2018-12-15T05:29:36.228Z,24.50
2018-12-15T05:30:39.777Z,23.43
2018-12-15T05:31:43.258Z,22.80
2018-12-15T05:32:46.706Z,22.27
2018-12-15T05:33:50.347Z,21.33
2018-12-15T05:34:53.992Z,22.43
2018-12-15T05:35:57.632Z,20.50
2018-12-15T05:37:01.160Z,21.63
2018-12-15T05:38:04.947Z,25.07
2018-12-15T05:39:08.440Z,20.13
2018-12-15T05:40:11.961Z,25.33
2018-12-15T05:41:15.472Z,24.80
2018-12-15T05:42:19.153Z,22.57
2018-12-15T05:43:23.620Z,24.10
2018-12-15T05:44:27.414Z,24.43
2018-12-15T05:45:31.043Z,24.37
2018-12-15T05:46:34.739Z,23.30
2018-12-15T05:47:38.905Z,24.57
2018-12-15T05:48:42.925Z,23.57
2018-12-15T05:49:46.471Z,21.17
2018-12-15T05:50:50.867Z,21.57
2018-12-15T05:51:54.322Z,25.73
2018-12-15T05:52:58.217Z,22.77
2018-12-15T05:54:02.201Z,22.37
2018-12-15T05:55:05.875Z,25.63
2018-12-15T05:56:10.136Z,22.17
2018-12-15T05:57:13.653Z,22.53
2018-12-15T05:58:17.215Z,24.37
2018-12-15T05:59:21.104Z,25.77
2018-12-15T06:00:24.584Z,24.20
2018-12-15T06:01:28.335Z,22.43
2018-12-15T06:02:32.148Z,23.10
2018-12-15T06:03:35.727Z,22.37
2018-12-15T06:04:39.218Z,26.07
2018-12-15T06:05:43.432Z,24.47
2018-12-15T06:06:46.891Z,23.20
2018-12-15T06:07:50.590Z,21.30
2018-12-15T06:08:54.056Z,25.20
2018-12-15T06:09:57.627Z,22.60
2018-12-15T06:11:01.094Z,22.33
2018-12-15T06:12:04.598Z,22.03
2018-12-15T06:13:08.510Z,21.13
2018-12-15T06:14:12.743Z,25.17
2018-12-15T06:15:16.439Z,24.83
2018-12-15T06:16:20.090Z,24.17
2018-12-15T06:17:24.078Z,23.17
2018-12-15T06:18:31.668Z,23.83
2018-12-15T06:19:33.427Z,25.67
2018-12-15T06:20:37.283Z,21.33
2018-12-15T06:21:40.756Z,25.77
2018-12-15T06:22:44.808Z,25.57
2018-12-15T06:23:48.389Z,23.47
2018-12-15T06:24:51.882Z,23.20
2018-12-15T06:25:55.407Z,22.57
2018-12-15T06:26:59.006Z,23.17
2018-12-15T06:28:02.531Z,24.70
2018-12-15T06:29:06.644Z,22.30
2018-12-15T06:30:10.419Z,24.37
2018-12-15T06:31:14.100Z,22.37
2018-12-15T06:32:17.677Z,23.47
2018-12-15T06:33:21.268Z,25.27
2018-12-15T06:34:25.133Z,23.53
2018-12-15T06:35:31.783Z,25.70
2018-12-15T06:36:35.361Z,25.37
2018-12-15T06:37:38.866Z,21.93
2018-12-15T06:38:43.016Z,24.10
2018-12-15T06:39:46.764Z,26.47
2018-12-15T06:40:50.437Z,24.17
2018-12-15T06:41:54.656Z,24.20
2018-12-15T06:42:58.369Z,25.37
2018-12-15T06:44:02.585Z,26.13
2018-12-15T06:45:07.100Z,23.07
2018-12-15T06:46:10.742Z,23.93
2018-12-15T06:47:14.780Z,25.57
2018-12-15T06:48:18.896Z,24.90
2018-12-15T06:49:23.374Z,20.87
2018-12-15T06:50:26.843Z,23.60
2018-12-15T06:51:30.331Z,21.90
2018-12-15T06:52:34.641Z,22.30
2018-12-15T06:53:38.117Z,24.50
2018-12-15T06:54:41.575Z,22.10
2018-12-15T06:55:45.161Z,22.70
2018-12-15T06:56:48.699Z,23.93
2018-12-15T06:57:53.181Z,26.30
2018-12-15T06:58:57.312Z,23.63
2018-12-15T07:00:00.961Z,24.10
2018-12-15T07:01:04.505Z,25.43
2018-12-15T07:02:10.241Z,24.10
2018-12-15T07:03:14.166Z,26.83
2018-12-15T07:04:17.830Z,24.73
2018-12-15T07:05:21.380Z,24.17
2018-12-15T07:06:25.021Z,25.63
2018-12-15T07:07:30.030Z,24.17
2018-12-15T07:08:33.943Z,21.63
2018-12-15T07:09:37.426Z,24.60
2018-12-15T07:10:40.985Z,23.23
2018-12-15T07:11:44.561Z,20.37
2018-12-15T07:12:48.504Z,24.53
2018-12-15T07:13:52.072Z,26.43
2018-12-15T07:14:55.611Z,23.63
2018-12-15T07:15:59.160Z,23.50
2018-12-15T07:17:03.667Z,21.63
2018-12-15T07:18:07.177Z,21.60
2018-12-15T07:19:12.085Z,24.63
2018-12-15T07:20:15.889Z,24.00
2018-12-15T07:21:20.203Z,22.37
2018-12-15T07:22:24.311Z,24.20
2018-12-15T07:23:27.855Z,23.33
2018-12-15T07:24:31.587Z,23.20
2018-12-15T07:25:35.425Z,23.53
2018-12-15T07:26:39.499Z,23.87
2018-12-15T07:27:43.036Z,20.77
2018-12-15T07:28:46.596Z,23.77
2018-12-15T07:29:50.056Z,20.27
2018-12-15T07:30:53.608Z,23.63
2018-12-15T07:31:57.124Z,22.67
2018-12-15T07:33:00.675Z,20.47
2018-12-15T07:34:04.189Z,22.50
2018-12-15T07:35:09.184Z,22.17
2018-12-15T07:36:12.817Z,20.70
2018-12-15T07:37:17.064Z,23.17
2018-12-15T07:38:20.771Z,22.03
2018-12-15T07:39:25.388Z,22.80
2018-12-15T07:40:28.970Z,23.67
2018-12-15T07:41:32.566Z,22.57
2018-12-15T07:42:36.411Z,21.40
2018-12-15T07:43:40.428Z,24.63
2018-12-15T07:44:43.924Z,19.67
2018-12-15T07:45:47.525Z,24.40
2018-12-15T07:46:51.039Z,21.87
2018-12-15T07:47:54.782Z,20.67
2018-12-15T07:48:58.367Z,22.17
2018-12-15T07:50:01.969Z,23.67
2018-12-15T07:51:06.968Z,23.70
2018-12-15T07:52:11.831Z,21.80
2018-12-15T07:53:16.687Z,20.43
2018-12-15T07:54:21.345Z,24.53
2018-12-15T07:55:25.058Z,21.47
2018-12-15T07:56:30.000Z,24.43
2018-12-15T07:57:33.508Z,23.57
2018-12-15T07:58:38.082Z,22.53
2018-12-15T07:59:41.844Z,24.47
2018-12-15T08:00:45.409Z,20.80
2018-12-15T08:01:48.885Z,19.83
2018-12-15T08:02:52.466Z,20.07
2018-12-15T08:03:56.099Z,21.87
2018-12-15T08:05:00.366Z,19.87
2018-12-15T08:06:03.915Z,20.73
2018-12-15T08:07:07.486Z,23.23
2018-12-15T08:08:11.473Z,22.17
2018-12-15T08:09:15.088Z,23.53
2018-12-15T08:10:23.181Z,22.20
2018-12-15T08:11:32.075Z,20.00
2018-12-15T08:12:42.008Z,20.40
2018-12-15T08:13:49.037Z,22.70
2018-12-15T08:14:53.370Z,19.73
2018-12-15T08:15:58.326Z,24.63
2018-12-15T08:17:02.385Z,25.20
2018-12-15T08:18:06.503Z,24.17
2018-12-15T08:19:10.821Z,21.03
2018-12-15T08:20:14.427Z,19.57
2018-12-15T08:21:17.858Z,20.80
2018-12-15T08:22:26.041Z,21.00
2018-12-15T08:23:27.542Z,21.13
2018-12-15T08:24:31.213Z,20.57
2018-12-15T08:25:35.276Z,21.57
2018-12-15T08:26:39.299Z,23.07
2018-12-15T08:27:42.757Z,23.57
2018-12-15T08:28:46.233Z,23.60
2018-12-15T08:29:50.478Z,21.10
2018-12-15T08:30:54.500Z,22.67
2018-12-15T08:31:58.694Z,20.30
2018-12-15T08:33:02.263Z,22.47
2018-12-15T08:34:06.077Z,19.47
2018-12-15T08:35:10.077Z,20.40
2018-12-15T08:36:14.005Z,23.53
2018-12-15T08:37:21.371Z,20.63
2018-12-15T08:38:25.106Z,24.43
2018-12-15T08:39:28.817Z,21.97
2018-12-15T08:40:32.517Z,23.23
2018-12-15T08:41:36.242Z,25.43
2018-12-15T08:42:39.906Z,21.93
2018-12-15T08:43:43.543Z,21.30
2018-12-15T08:44:47.092Z,24.97
2018-12-15T08:45:50.732Z,27.93
2018-12-15T08:46:54.450Z,25.03
2018-12-15T08:47:57.994Z,23.23
2018-12-15T08:49:04.590Z,23.37
2018-12-15T08:50:07.326Z,23.37
2018-12-15T08:51:13.189Z,23.20
2018-12-15T08:52:33.405Z,23.97
2018-12-15T08:53:55.854Z,26.73
2018-12-15T08:55:04.523Z,24.20
2018-12-15T08:56:08.220Z,24.83
2018-12-15T08:57:16.146Z,22.23
2018-12-15T08:58:19.685Z,25.97
2018-12-15T08:59:23.315Z,24.93
2018-12-15T09:00:26.872Z,25.73
2018-12-15T09:01:30.587Z,25.53
2018-12-15T09:02:34.214Z,20.63
2018-12-15T09:03:37.987Z,24.43
2018-12-15T09:04:42.339Z,23.87
2018-12-15T09:05:45.883Z,27.87
2018-12-15T09:06:49.606Z,23.87
2018-12-15T09:07:53.256Z,24.87
2018-12-15T09:08:56.829Z,20.50
2018-12-15T09:10:00.312Z,22.00
2018-12-15T09:11:03.824Z,22.70
2018-12-15T09:12:07.388Z,25.40
2018-12-15T09:13:11.011Z,22.70
2018-12-15T09:14:14.632Z,19.17
2018-12-15T09:15:18.171Z,22.80
2018-12-15T09:16:26.318Z,22.17
2018-12-15T09:17:27.541Z,22.50
2018-12-15T09:18:31.080Z,22.80
2018-12-15T09:19:34.606Z,22.97
2018-12-15T09:20:38.401Z,21.40
2018-12-15T09:21:41.989Z,24.80
2018-12-15T09:22:45.488Z,22.47
2018-12-15T09:23:49.106Z,23.13
2018-12-15T09:24:52.710Z,23.20
2018-12-15T09:25:57.364Z,21.87
2018-12-15T09:27:00.903Z,26.77
2018-12-15T09:28:04.540Z,21.30
2018-12-15T09:29:08.124Z,22.50
2018-12-15T09:30:12.207Z,21.67
2018-12-15T09:31:15.814Z,20.43
2018-12-15T09:32:19.439Z,24.63
2018-12-15T09:33:23.048Z,21.70
2018-12-15T09:34:26.731Z,20.10
2018-12-15T09:35:30.344Z,19.73
2018-12-15T09:36:33.920Z,19.70
2018-12-15T09:37:37.467Z,21.07
2018-12-15T09:38:41.137Z,25.03
2018-12-15T09:39:44.690Z,21.30
2018-12-15T09:40:48.333Z,23.60
2018-12-15T09:41:51.968Z,20.57
2018-12-15T09:42:55.545Z,22.53
2018-12-15T09:43:59.214Z,22.47
2018-12-15T09:45:02.805Z,22.43
2018-12-15T09:46:06.380Z,22.10
2018-12-15T09:47:10.321Z,22.43
2018-12-15T09:48:14.356Z,21.17
2018-12-15T09:49:18.119Z,22.10
2018-12-15T09:50:21.962Z,21.50
2018-12-15T09:51:25.551Z,18.50
2018-12-15T09:52:29.133Z,22.07
2018-12-15T09:53:32.979Z,20.33
2018-12-15T09:54:36.649Z,20.37
2018-12-15T09:55:40.214Z,25.67
2018-12-15T09:56:43.856Z,18.67
2018-12-15T09:57:47.337Z,20.23
2018-12-15T09:58:51.089Z,21.70
2018-12-15T09:59:55.536Z,20.13
2018-12-15T10:00:59.141Z,22.90
2018-12-15T10:02:02.746Z,20.63
2018-12-15T10:03:06.301Z,22.03
2018-12-15T10:04:10.049Z,20.33
2018-12-15T10:05:13.812Z,21.97
2018-12-15T10:06:17.497Z,25.20
2018-12-15T10:07:21.230Z,19.63
2018-12-15T10:08:24.735Z,21.63
2018-12-15T10:09:28.898Z,21.53
2018-12-15T10:10:32.493Z,20.50
2018-12-15T10:11:36.223Z,19.57
2018-12-15T10:12:39.771Z,19.00
2018-12-15T10:13:43.367Z,18.63
2018-12-15T10:14:47.010Z,20.33
2018-12-15T10:15:50.705Z,19.50
2018-12-15T10:16:54.391Z,20.37
2018-12-15T10:17:57.998Z,20.80
2018-12-15T10:19:01.632Z,19.53
2018-12-15T10:20:05.945Z,19.20
2018-12-15T10:21:09.615Z,24.67
2018-12-15T10:22:13.735Z,18.90
2018-12-15T10:23:17.583Z,19.87
2018-12-15T10:24:21.410Z,20.90
2018-12-15T10:25:25.310Z,19.50
2018-12-15T10:26:29.024Z,21.37
2018-12-15T10:27:32.733Z,17.43
2018-12-15T10:28:37.539Z,18.67
2018-12-15T10:29:46.405Z,20.70
2018-12-15T10:30:55.473Z,18.17
2018-12-15T10:32:04.368Z,18.70
2018-12-15T10:33:08.108Z,17.20
2018-12-15T10:34:12.461Z,18.77
2018-12-15T10:35:16.165Z,18.17
2018-12-15T10:36:20.003Z,19.70
2018-12-15T10:37:23.708Z,18.43
2018-12-15T10:38:27.500Z,17.33
2018-12-15T10:39:31.257Z,17.03
2018-12-15T10:40:34.940Z,17.17
2018-12-15T10:41:38.505Z,19.67
2018-12-15T10:42:42.263Z,19.63
2018-12-15T10:43:45.842Z,18.03
2018-12-15T10:44:49.628Z,16.17
2018-12-15T10:45:53.319Z,17.70
2018-12-15T10:46:56.871Z,17.23
2018-12-15T10:48:00.348Z,18.23
2018-12-15T10:49:04.185Z,15.63
2018-12-15T10:50:09.272Z,19.23
2018-12-15T10:51:13.073Z,15.63
2018-12-15T10:52:16.685Z,17.33
2018-12-15T10:53:20.359Z,17.70
2018-12-15T10:54:24.259Z,19.60
2018-12-15T10:55:27.946Z,19.67
2018-12-15T10:56:31.719Z,16.63
2018-12-15T10:57:35.327Z,20.07
2018-12-15T10:58:39.054Z,17.77
2018-12-15T10:59:42.816Z,20.10
2018-12-15T11:00:51.791Z,22.03
2018-12-15T11:01:55.519Z,16.67
2018-12-15T11:02:59.179Z,18.67
2018-12-15T11:04:02.919Z,16.07
2018-12-15T11:05:06.655Z,18.70
2018-12-15T11:06:10.364Z,15.53
2018-12-15T11:07:14.160Z,19.23
2018-12-15T11:08:18.314Z,18.90
2018-12-15T11:09:21.950Z,15.93
2018-12-15T11:10:25.600Z,18.50
2018-12-15T11:11:29.465Z,20.67
2018-12-15T11:12:33.161Z,19.23
2018-12-15T11:13:37.267Z,17.83
2018-12-15T11:14:40.930Z,18.33
2018-12-15T11:15:44.703Z,18.63
2018-12-15T11:16:48.488Z,16.83
2018-12-15T11:17:52.257Z,18.13
2018-12-15T11:18:55.858Z,17.47
2018-12-15T11:19:59.579Z,17.50
2018-12-15T11:21:03.271Z,17.20
2018-12-15T11:22:06.914Z,13.93
2018-12-15T11:23:10.968Z,19.87
2018-12-15T11:24:15.304Z,18.10
2018-12-15T11:25:18.925Z,17.63
2018-12-15T11:26:22.686Z,15.87
2018-12-15T11:27:26.311Z,17.10
2018-12-15T11:28:30.001Z,16.50
2018-12-15T11:29:33.683Z,15.90
2018-12-15T11:30:37.379Z,18.53
2018-12-15T11:31:41.002Z,18.50
2018-12-15T11:32:44.650Z,16.77
2018-12-15T11:33:48.441Z,18.40
2018-12-15T11:34:54.927Z,15.93
2018-12-15T11:35:59.146Z,18.17
2018-12-15T11:37:02.918Z,19.03
2018-12-15T11:38:06.574Z,16.00
2018-12-15T11:39:10.406Z,18.30
2018-12-15T11:40:14.824Z,15.67
2018-12-15T11:41:18.516Z,16.73
2018-12-15T11:42:22.219Z,17.57
2018-12-15T11:43:25.881Z,15.40
2018-12-15T11:44:29.621Z,15.37
2018-12-15T11:45:33.442Z,16.90
2018-12-15T11:46:37.050Z,18.07
2018-12-15T11:47:40.772Z,21.03
2018-12-15T11:48:44.444Z,20.57
2018-12-15T11:49:47.980Z,18.57
2018-12-15T11:50:51.637Z,17.93
2018-12-15T11:51:55.201Z,15.53
2018-12-15T11:52:58.874Z,17.73
2018-12-15T11:54:02.415Z,15.30
2018-12-15T11:55:06.138Z,14.17
2018-12-15T11:56:09.991Z,16.83
2018-12-15T11:57:15.001Z,16.50
2018-12-15T11:58:34.713Z,14.30
2018-12-15T11:59:56.448Z,15.87
2018-12-15T12:01:00.701Z,13.70
2018-12-15T12:02:04.263Z,16.10
2018-12-15T12:03:07.933Z,16.37
2018-12-15T12:04:11.867Z,17.33
2018-12-15T12:05:15.627Z,16.33
2018-12-15T12:06:19.141Z,14.03
2018-12-15T12:07:22.854Z,15.43
2018-12-15T12:08:26.410Z,14.27
2018-12-15T12:09:29.923Z,15.97
2018-12-15T12:10:33.472Z,15.47
2018-12-15T12:11:37.232Z,16.03
2018-12-15T12:12:40.827Z,18.47
2018-12-15T12:13:44.500Z,17.80
2018-12-15T12:14:48.211Z,16.80
2018-12-15T12:15:51.832Z,15.17
2018-12-15T12:16:55.353Z,16.53
2018-12-15T12:17:58.916Z,14.50
2018-12-15T12:19:02.439Z,15.43
2018-12-15T12:20:07.482Z,13.70
2018-12-15T12:21:11.126Z,14.47
2018-12-15T12:22:14.944Z,15.57
2018-12-15T12:23:18.491Z,14.77
2018-12-15T12:24:22.204Z,17.17
2018-12-15T12:25:25.722Z,16.13
2018-12-15T12:26:29.302Z,18.50
2018-12-15T12:27:33.267Z,15.83
2018-12-15T12:28:36.794Z,15.83
2018-12-15T12:29:40.413Z,17.73
2018-12-15T12:30:44.031Z,18.83
2018-12-15T12:31:47.534Z,16.63
2018-12-15T12:32:51.176Z,15.63
2018-12-15T12:33:59.252Z,14.83
2018-12-15T12:35:03.030Z,17.40
2018-12-15T12:36:06.658Z,15.27
2018-12-15T12:37:10.486Z,16.60
2018-12-15T12:38:14.714Z,18.20
2018-12-15T12:39:18.304Z,18.23
2018-12-15T12:40:22.064Z,14.20
2018-12-15T12:41:25.803Z,15.33
2018-12-15T12:42:29.417Z,15.67
2018-12-15T12:43:33.168Z,13.93
2018-12-15T12:44:36.817Z,16.40
2018-12-15T12:45:40.285Z,16.70
2018-12-15T12:46:44.043Z,16.57
2018-12-15T12:47:47.616Z,15.63
2018-12-15T12:48:51.234Z,15.63
2018-12-15T12:49:56.957Z,16.57
2018-12-15T12:51:00.327Z,13.70
2018-12-15T12:52:03.848Z,14.17
2018-12-15T12:53:07.547Z,16.80
2018-12-15T12:54:11.335Z,16.50
2018-12-15T12:55:15.031Z,14.77
2018-12-15T12:56:18.697Z,16.47
2018-12-15T12:57:22.276Z,21.00
2018-12-15T12:58:25.880Z,16.60
2018-12-15T12:59:29.521Z,16.97
2018-12-15T13:00:33.142Z,15.47
2018-12-15T13:01:36.861Z,17.67
2018-12-15T13:02:40.508Z,16.77
2018-12-15T13:03:44.213Z,15.53
2018-12-15T13:04:47.917Z,14.87
2018-12-15T13:05:51.536Z,18.40
2018-12-15T13:06:55.067Z,18.43
2018-12-15T13:07:58.687Z,19.07
2018-12-15T13:09:02.809Z,18.90
2018-12-15T13:10:06.815Z,16.40
2018-12-15T13:11:11.426Z,15.90
2018-12-15T13:12:15.135Z,17.90
2018-12-15T13:13:18.903Z,19.10
2018-12-15T13:14:22.607Z,17.53
2018-12-15T13:15:26.358Z,16.30
2018-12-15T13:16:30.041Z,18.17
2018-12-15T13:17:33.943Z,14.63
2018-12-15T13:18:37.578Z,15.90
2018-12-15T13:19:41.185Z,15.87
2018-12-15T13:20:45.044Z,15.20
2018-12-15T13:21:48.656Z,16.53
2018-12-15T13:22:52.231Z,15.90
2018-12-15T13:23:55.813Z,17.00
2018-12-15T13:24:59.584Z,16.47
2018-12-15T13:26:03.309Z,17.33
2018-12-15T13:27:06.840Z,18.77
2018-12-15T13:28:10.799Z,17.10
2018-12-15T13:29:14.556Z,17.77
2018-12-15T13:30:18.128Z,18.27
2018-12-15T13:31:21.645Z,17.17
2018-12-15T13:32:25.577Z,18.40
2018-12-15T13:33:35.633Z,19.93
2018-12-15T13:34:39.350Z,17.90
2018-12-15T13:35:43.087Z,19.20
2018-12-15T13:36:46.789Z,18.07
2018-12-15T13:37:50.446Z,19.87
2018-12-15T13:38:54.074Z,17.70
2018-12-15T13:39:57.609Z,18.03
2018-12-15T13:41:01.184Z,16.97
2018-12-15T13:42:04.984Z,17.03
2018-12-15T13:43:08.650Z,22.00
2018-12-15T13:44:12.690Z,18.37